sensor_id;sensor_type;location;lat;lon;timestamp;temperature;humidity
8715;DHT22;4394;51.208;8.904;2024-01-30T00:00:53;6.60;99.90
8715;DHT22;4394;51.208;8.904;2024-01-30T00:03:42;6.60;99.90
8715;DHT22;4394;51.208;8.904;2024-01-30T00:06:31;6.60;99.90
8715;DHT22;4394;51.208;8.904;2024-01-30T00:09:19;6.50;99.90
8715;DHT22;4394;51.208;8.904;2024-01-30T00:12:08;6.50;99.90
8715;DHT22;4394;51.208;8.904;2024-01-30T00:14:56;6.50;99.90
8715;DHT22;4394;51.208;8.904;2024-01-30T00:17:44;6.60;99.90
8715;DHT22;4394;51.208;8.904;2024-01-30T00:20:33;6.60;99.90
8715;DHT22;4394;51.208;8.904;2024-01-30T00:23:22;6.50;99.90
8715;DHT22;4394;51.208;8.904;2024-01-30T00:26:11;6.50;99.90
8715;DHT22;4394;51.208;8.904;2024-01-30T00:28:59;6.50;99.90
8715;DHT22;4394;51.208;8.904;2024-01-30T00:31:47;6.50;99.90
8715;DHT22;4394;51.208;8.904;2024-01-30T00:34:35;6.50;99.90
8715;DHT22;4394;51.208;8.904;2024-01-30T00:37:24;6.50;99.90
8715;DHT22;4394;51.208;8.904;2024-01-30T00:40:13;6.50;99.90
8715;DHT22;4394;51.208;8.904;2024-01-30T00:43:03;6.50;99.90
8715;DHT22;4394;51.208;8.904;2024-01-30T00:45:51;6.50;99.90
8715;DHT22;4394;51.208;8.904;2024-01-30T00:48:39;6.50;99.90
8715;DHT22;4394;51.208;8.904;2024-01-30T00:51:28;6.50;99.90
8715;DHT22;4394;51.208;8.904;2024-01-30T00:54:16;6.50;99.90
8715;DHT22;4394;51.208;8.904;2024-01-30T00:57:06;6.40;99.90
8715;DHT22;4394;51.208;8.904;2024-01-30T00:59:54;6.40;99.90
8715;DHT22;4394;51.208;8.904;2024-01-30T01:02:42;6.40;99.90
8715;DHT22;4394;51.208;8.904;2024-01-30T01:05:30;6.40;99.90
8715;DHT22;4394;51.208;8.904;2024-01-30T01:08:18;6.40;99.90
8715;DHT22;4394;51.208;8.904;2024-01-30T01:11:07;6.50;99.90
8715;DHT22;4394;51.208;8.904;2024-01-30T01:13:56;6.40;99.90
8715;DHT22;4394;51.208;8.904;2024-01-30T01:16:44;6.40;99.90
8715;DHT22;4394;51.208;8.904;2024-01-30T01:19:33;6.40;99.90
8715;DHT22;4394;51.208;8.904;2024-01-30T01:22:21;6.40;99.90
8715;DHT22;4394;51.208;8.904;2024-01-30T01:25:09;6.30;99.90
8715;DHT22;4394;51.208;8.904;2024-01-30T01:27:58;6.30;99.90
8715;DHT22;4394;51.208;8.904;2024-01-30T01:30:49;6.30;99.90
8715;DHT22;4394;51.208;8.904;2024-01-30T01:33:38;6.30;99.90
8715;DHT22;4394;51.208;8.904;2024-01-30T01:36:26;6.30;99.90
8715;DHT22;4394;51.208;8.904;2024-01-30T01:39:14;6.20;99.90
8715;DHT22;4394;51.208;8.904;2024-01-30T01:42:03;6.20;99.90
8715;DHT22;4394;51.208;8.904;2024-01-30T01:44:52;6.30;99.90
8715;DHT22;4394;51.208;8.904;2024-01-30T01:47:41;6.10;99.90
8715;DHT22;4394;51.208;8.904;2024-01-30T01:50:30;6.10;99.90
8715;DHT22;4394;51.208;8.904;2024-01-30T01:53:18;6.10;99.90
8715;DHT22;4394;51.208;8.904;2024-01-30T01:56:07;6.10;99.90
8715;DHT22;4394;51.208;8.904;2024-01-30T01:58:55;6.20;99.90
8715;DHT22;4394;51.208;8.904;2024-01-30T02:01:46;6.20;99.90
8715;DHT22;4394;51.208;8.904;2024-01-30T02:04:37;6.10;99.90
8715;DHT22;4394;51.208;8.904;2024-01-30T02:07:26;6.10;99.90
8715;DHT22;4394;51.208;8.904;2024-01-30T02:10:15;6.00;99.90
8715;DHT22;4394;51.208;8.904;2024-01-30T02:13:03;6.10;99.90
8715;DHT22;4394;51.208;8.904;2024-01-30T02:15:51;6.20;99.90
8715;DHT22;4394;51.208;8.904;2024-01-30T02:18:40;6.10;99.90
8715;DHT22;4394;51.208;8.904;2024-01-30T02:21:31;6.10;99.90
8715;DHT22;4394;51.208;8.904;2024-01-30T02:24:19;6.00;99.90
8715;DHT22;4394;51.208;8.904;2024-01-30T02:27:08;6.00;99.90
8715;DHT22;4394;51.208;8.904;2024-01-30T02:29:56;6.00;99.90
8715;DHT22;4394;51.208;8.904;2024-01-30T02:32:44;6.00;99.90
8715;DHT22;4394;51.208;8.904;2024-01-30T02:35:32;6.00;99.90
8715;DHT22;4394;51.208;8.904;2024-01-30T02:38:22;6.00;99.90
8715;DHT22;4394;51.208;8.904;2024-01-30T02:41:10;6.00;99.90
8715;DHT22;4394;51.208;8.904;2024-01-30T02:43:58;6.00;99.90
8715;DHT22;4394;51.208;8.904;2024-01-30T02:46:46;6.00;99.90
8715;DHT22;4394;51.208;8.904;2024-01-30T02:49:34;6.00;99.90
8715;DHT22;4394;51.208;8.904;2024-01-30T02:52:22;6.00;99.90
8715;DHT22;4394;51.208;8.904;2024-01-30T02:55:14;6.00;99.90
8715;DHT22;4394;51.208;8.904;2024-01-30T02:58:04;6.00;99.90
8715;DHT22;4394;51.208;8.904;2024-01-30T03:00:53;6.00;99.90
8715;DHT22;4394;51.208;8.904;2024-01-30T03:03:42;6.00;99.90
8715;DHT22;4394;51.208;8.904;2024-01-30T03:06:31;6.00;99.90
8715;DHT22;4394;51.208;8.904;2024-01-30T03:09:20;5.90;99.90
8715;DHT22;4394;51.208;8.904;2024-01-30T03:12:10;5.90;99.90
8715;DHT22;4394;51.208;8.904;2024-01-30T03:14:59;5.90;99.90
8715;DHT22;4394;51.208;8.904;2024-01-30T03:17:48;5.90;99.90
8715;DHT22;4394;51.208;8.904;2024-01-30T03:20:36;5.90;99.90
8715;DHT22;4394;51.208;8.904;2024-01-30T03:23:25;5.90;99.90
8715;DHT22;4394;51.208;8.904;2024-01-30T03:26:14;5.90;99.90
8715;DHT22;4394;51.208;8.904;2024-01-30T03:29:04;5.80;99.90
8715;DHT22;4394;51.208;8.904;2024-01-30T03:31:52;5.80;99.90
8715;DHT22;4394;51.208;8.904;2024-01-30T03:34:42;5.80;99.90
8715;DHT22;4394;51.208;8.904;2024-01-30T03:37:32;5.80;99.90
8715;DHT22;4394;51.208;8.904;2024-01-30T03:40:22;5.70;99.90
8715;DHT22;4394;51.208;8.904;2024-01-30T03:43:11;5.80;99.90
8715;DHT22;4394;51.208;8.904;2024-01-30T03:46:01;5.70;99.90
8715;DHT22;4394;51.208;8.904;2024-01-30T03:48:50;5.70;99.90
8715;DHT22;4394;51.208;8.904;2024-01-30T03:51:40;5.70;99.90
8715;DHT22;4394;51.208;8.904;2024-01-30T03:54:29;5.70;99.90
8715;DHT22;4394;51.208;8.904;2024-01-30T03:57:17;5.70;99.90
8715;DHT22;4394;51.208;8.904;2024-01-30T04:00:07;5.70;99.90
8715;DHT22;4394;51.208;8.904;2024-01-30T04:02:59;5.60;99.90
8715;DHT22;4394;51.208;8.904;2024-01-30T04:05:48;5.60;99.90
8715;DHT22;4394;51.208;8.904;2024-01-30T04:08:37;5.60;99.90
8715;DHT22;4394;51.208;8.904;2024-01-30T04:11:26;5.60;99.90
8715;DHT22;4394;51.208;8.904;2024-01-30T04:14:15;5.60;99.90
8715;DHT22;4394;51.208;8.904;2024-01-30T04:17:05;5.50;99.90
8715;DHT22;4394;51.208;8.904;2024-01-30T04:19:55;5.60;99.90
8715;DHT22;4394;51.208;8.904;2024-01-30T04:22:45;5.60;99.90
8715;DHT22;4394;51.208;8.904;2024-01-30T04:25:34;5.60;99.90
8715;DHT22;4394;51.208;8.904;2024-01-30T04:28:22;5.50;99.90
8715;DHT22;4394;51.208;8.904;2024-01-30T04:31:12;5.60;99.90
8715;DHT22;4394;51.208;8.904;2024-01-30T04:34:00;5.60;99.90
8715;DHT22;4394;51.208;8.904;2024-01-30T04:36:50;5.50;99.90
8715;DHT22;4394;51.208;8.904;2024-01-30T04:39:38;5.50;99.90
8715;DHT22;4394;51.208;8.904;2024-01-30T04:42:27;5.50;99.90
8715;DHT22;4394;51.208;8.904;2024-01-30T04:45:17;5.50;99.90
8715;DHT22;4394;51.208;8.904;2024-01-30T04:48:07;5.60;99.90
8715;DHT22;4394;51.208;8.904;2024-01-30T04:50:56;5.50;99.90
8715;DHT22;4394;51.208;8.904;2024-01-30T04:53:46;5.50;99.90
8715;DHT22;4394;51.208;8.904;2024-01-30T04:56:34;5.40;99.90
8715;DHT22;4394;51.208;8.904;2024-01-30T04:59:22;5.40;99.90
8715;DHT22;4394;51.208;8.904;2024-01-30T05:02:12;5.40;99.90
8715;DHT22;4394;51.208;8.904;2024-01-30T05:05:02;5.40;99.90
8715;DHT22;4394;51.208;8.904;2024-01-30T05:07:51;5.40;99.90
8715;DHT22;4394;51.208;8.904;2024-01-30T05:10:42;5.40;99.90
8715;DHT22;4394;51.208;8.904;2024-01-30T05:13:32;5.40;99.90
8715;DHT22;4394;51.208;8.904;2024-01-30T05:16:20;5.30;99.90
8715;DHT22;4394;51.208;8.904;2024-01-30T05:19:08;5.30;99.90
8715;DHT22;4394;51.208;8.904;2024-01-30T05:21:56;5.30;99.90
8715;DHT22;4394;51.208;8.904;2024-01-30T05:24:44;5.30;99.90
8715;DHT22;4394;51.208;8.904;2024-01-30T05:27:33;5.30;99.90
8715;DHT22;4394;51.208;8.904;2024-01-30T05:30:22;5.30;99.90
8715;DHT22;4394;51.208;8.904;2024-01-30T05:33:10;5.30;99.90
8715;DHT22;4394;51.208;8.904;2024-01-30T05:35:59;5.20;99.90
8715;DHT22;4394;51.208;8.904;2024-01-30T05:38:47;5.20;99.90
8715;DHT22;4394;51.208;8.904;2024-01-30T05:41:35;5.20;99.90
8715;DHT22;4394;51.208;8.904;2024-01-30T05:44:24;5.20;99.90
8715;DHT22;4394;51.208;8.904;2024-01-30T05:47:12;5.20;99.90
8715;DHT22;4394;51.208;8.904;2024-01-30T05:50:00;5.20;99.90
8715;DHT22;4394;51.208;8.904;2024-01-30T05:52:49;5.20;99.90
8715;DHT22;4394;51.208;8.904;2024-01-30T05:55:37;5.30;99.90
8715;DHT22;4394;51.208;8.904;2024-01-30T05:58:25;5.20;99.90
8715;DHT22;4394;51.208;8.904;2024-01-30T06:01:14;5.20;99.90
8715;DHT22;4394;51.208;8.904;2024-01-30T06:04:03;5.20;99.90
8715;DHT22;4394;51.208;8.904;2024-01-30T06:06:51;5.10;99.90
8715;DHT22;4394;51.208;8.904;2024-01-30T06:09:39;5.20;99.90
8715;DHT22;4394;51.208;8.904;2024-01-30T06:12:28;5.10;99.90
8715;DHT22;4394;51.208;8.904;2024-01-30T06:15:16;5.20;99.90
8715;DHT22;4394;51.208;8.904;2024-01-30T06:18:06;5.10;99.90
8715;DHT22;4394;51.208;8.904;2024-01-30T06:20:54;5.10;99.90
8715;DHT22;4394;51.208;8.904;2024-01-30T06:23:42;5.10;99.90
8715;DHT22;4394;51.208;8.904;2024-01-30T06:26:30;5.10;99.90
8715;DHT22;4394;51.208;8.904;2024-01-30T06:29:18;5.10;99.90
8715;DHT22;4394;51.208;8.904;2024-01-30T06:32:07;5.10;99.90
8715;DHT22;4394;51.208;8.904;2024-01-30T06:34:56;5.00;99.90
8715;DHT22;4394;51.208;8.904;2024-01-30T06:37:45;5.10;99.90
8715;DHT22;4394;51.208;8.904;2024-01-30T06:40:33;5.00;99.90
8715;DHT22;4394;51.208;8.904;2024-01-30T06:43:22;5.10;99.90
8715;DHT22;4394;51.208;8.904;2024-01-30T06:46:10;5.10;99.90
8715;DHT22;4394;51.208;8.904;2024-01-30T06:48:58;5.00;99.90
8715;DHT22;4394;51.208;8.904;2024-01-30T06:51:47;5.10;99.90
8715;DHT22;4394;51.208;8.904;2024-01-30T06:54:36;5.00;99.90
8715;DHT22;4394;51.208;8.904;2024-01-30T06:57:24;5.00;99.90
8715;DHT22;4394;51.208;8.904;2024-01-30T07:00:15;5.00;99.90
8715;DHT22;4394;51.208;8.904;2024-01-30T07:03:05;5.00;99.90
8715;DHT22;4394;51.208;8.904;2024-01-30T07:05:53;5.00;99.90
8715;DHT22;4394;51.208;8.904;2024-01-30T07:08:43;5.00;99.90
8715;DHT22;4394;51.208;8.904;2024-01-30T07:11:31;5.00;99.90
8715;DHT22;4394;51.208;8.904;2024-01-30T07:14:19;5.00;99.90
8715;DHT22;4394;51.208;8.904;2024-01-30T07:17:07;4.90;99.90
8715;DHT22;4394;51.208;8.904;2024-01-30T07:19:55;5.00;99.90
8715;DHT22;4394;51.208;8.904;2024-01-30T07:22:43;5.00;99.90
8715;DHT22;4394;51.208;8.904;2024-01-30T07:25:33;5.00;99.90
8715;DHT22;4394;51.208;8.904;2024-01-30T07:28:23;4.90;99.90
8715;DHT22;4394;51.208;8.904;2024-01-30T07:31:11;5.00;99.90
8715;DHT22;4394;51.208;8.904;2024-01-30T07:33:59;4.90;99.90
8715;DHT22;4394;51.208;8.904;2024-01-30T07:36:49;4.90;99.90
8715;DHT22;4394;51.208;8.904;2024-01-30T07:39:41;4.90;99.90
8715;DHT22;4394;51.208;8.904;2024-01-30T07:42:31;4.90;99.90
8715;DHT22;4394;51.208;8.904;2024-01-30T07:45:20;4.80;99.90
8715;DHT22;4394;51.208;8.904;2024-01-30T07:48:09;4.90;99.90
8715;DHT22;4394;51.208;8.904;2024-01-30T07:50:57;4.80;99.90
8715;DHT22;4394;51.208;8.904;2024-01-30T07:53:45;4.90;99.90
8715;DHT22;4394;51.208;8.904;2024-01-30T07:56:33;4.90;99.90
8715;DHT22;4394;51.208;8.904;2024-01-30T07:59:23;4.90;99.90
8715;DHT22;4394;51.208;8.904;2024-01-30T08:02:12;4.90;99.90
8715;DHT22;4394;51.208;8.904;2024-01-30T08:05:00;4.80;99.90
8715;DHT22;4394;51.208;8.904;2024-01-30T08:07:48;4.90;99.90
8715;DHT22;4394;51.208;8.904;2024-01-30T08:10:37;4.90;99.90
8715;DHT22;4394;51.208;8.904;2024-01-30T08:13:25;4.90;99.90
8715;DHT22;4394;51.208;8.904;2024-01-30T08:16:14;4.90;99.90
8715;DHT22;4394;51.208;8.904;2024-01-30T08:19:02;4.90;99.90
8715;DHT22;4394;51.208;8.904;2024-01-30T08:21:51;4.90;99.90
8715;DHT22;4394;51.208;8.904;2024-01-30T08:24:40;5.00;99.90
8715;DHT22;4394;51.208;8.904;2024-01-30T08:27:28;5.00;99.90
8715;DHT22;4394;51.208;8.904;2024-01-30T08:30:16;5.00;99.90
8715;DHT22;4394;51.208;8.904;2024-01-30T08:33:06;5.00;99.90
8715;DHT22;4394;51.208;8.904;2024-01-30T08:35:54;5.00;99.90
8715;DHT22;4394;51.208;8.904;2024-01-30T08:38:42;5.00;99.90
8715;DHT22;4394;51.208;8.904;2024-01-30T08:41:30;5.00;99.90
8715;DHT22;4394;51.208;8.904;2024-01-30T08:44:19;5.00;99.90
8715;DHT22;4394;51.208;8.904;2024-01-30T08:47:07;5.10;99.90
8715;DHT22;4394;51.208;8.904;2024-01-30T08:49:56;5.10;99.90
8715;DHT22;4394;51.208;8.904;2024-01-30T08:52:45;5.10;99.90
8715;DHT22;4394;51.208;8.904;2024-01-30T08:55:34;5.10;99.90
8715;DHT22;4394;51.208;8.904;2024-01-30T08:58:22;5.10;99.90
8715;DHT22;4394;51.208;8.904;2024-01-30T09:01:11;5.10;99.90
8715;DHT22;4394;51.208;8.904;2024-01-30T09:03:59;5.10;99.90
8715;DHT22;4394;51.208;8.904;2024-01-30T09:06:49;5.20;99.90
8715;DHT22;4394;51.208;8.904;2024-01-30T09:09:38;5.20;99.90
8715;DHT22;4394;51.208;8.904;2024-01-30T09:12:27;5.10;99.90
8715;DHT22;4394;51.208;8.904;2024-01-30T09:15:15;5.20;99.90
8715;DHT22;4394;51.208;8.904;2024-01-30T09:18:04;5.30;99.90
8715;DHT22;4394;51.208;8.904;2024-01-30T09:20:53;5.30;99.90
8715;DHT22;4394;51.208;8.904;2024-01-30T09:23:43;5.30;99.90
8715;DHT22;4394;51.208;8.904;2024-01-30T09:26:31;5.50;99.90
8715;DHT22;4394;51.208;8.904;2024-01-30T09:29:20;5.50;99.90
8715;DHT22;4394;51.208;8.904;2024-01-30T09:32:09;5.50;99.90
8715;DHT22;4394;51.208;8.904;2024-01-30T09:34:58;5.50;99.90
8715;DHT22;4394;51.208;8.904;2024-01-30T09:37:46;5.50;99.90
8715;DHT22;4394;51.208;8.904;2024-01-30T09:40:36;5.50;99.90
8715;DHT22;4394;51.208;8.904;2024-01-30T09:43:24;5.60;99.90
8715;DHT22;4394;51.208;8.904;2024-01-30T09:46:15;5.60;99.90
8715;DHT22;4394;51.208;8.904;2024-01-30T09:49:06;5.70;99.90
8715;DHT22;4394;51.208;8.904;2024-01-30T09:51:56;5.60;99.90
8715;DHT22;4394;51.208;8.904;2024-01-30T09:54:45;5.60;99.90
8715;DHT22;4394;51.208;8.904;2024-01-30T09:57:35;5.70;99.90
8715;DHT22;4394;51.208;8.904;2024-01-30T10:00:23;5.80;99.90
8715;DHT22;4394;51.208;8.904;2024-01-30T10:03:14;5.80;99.90
8715;DHT22;4394;51.208;8.904;2024-01-30T10:06:03;5.90;99.90
8715;DHT22;4394;51.208;8.904;2024-01-30T10:08:51;5.90;99.90
8715;DHT22;4394;51.208;8.904;2024-01-30T10:11:39;5.90;99.90
8715;DHT22;4394;51.208;8.904;2024-01-30T10:14:28;5.90;99.90
8715;DHT22;4394;51.208;8.904;2024-01-30T10:17:17;5.90;99.90
8715;DHT22;4394;51.208;8.904;2024-01-30T10:20:18;6.00;99.90
8715;DHT22;4394;51.208;8.904;2024-01-30T10:23:09;6.00;99.90
8715;DHT22;4394;51.208;8.904;2024-01-30T10:25:57;6.10;99.90
8715;DHT22;4394;51.208;8.904;2024-01-30T10:28:46;6.10;99.90
8715;DHT22;4394;51.208;8.904;2024-01-30T10:31:35;6.20;99.90
8715;DHT22;4394;51.208;8.904;2024-01-30T10:34:24;6.10;99.90
8715;DHT22;4394;51.208;8.904;2024-01-30T10:37:13;6.10;99.90
8715;DHT22;4394;51.208;8.904;2024-01-30T10:40:04;6.10;99.90
8715;DHT22;4394;51.208;8.904;2024-01-30T10:42:53;6.10;99.90
8715;DHT22;4394;51.208;8.904;2024-01-30T10:45:45;6.20;99.90
8715;DHT22;4394;51.208;8.904;2024-01-30T10:48:42;6.20;99.90
8715;DHT22;4394;51.208;8.904;2024-01-30T10:51:32;6.20;99.90
8715;DHT22;4394;51.208;8.904;2024-01-30T10:54:23;6.30;99.90
8715;DHT22;4394;51.208;8.904;2024-01-30T10:57:12;6.30;99.90
8715;DHT22;4394;51.208;8.904;2024-01-30T11:00:03;6.30;99.90
8715;DHT22;4394;51.208;8.904;2024-01-30T11:02:57;6.40;99.90
8715;DHT22;4394;51.208;8.904;2024-01-30T11:05:50;6.50;99.90
8715;DHT22;4394;51.208;8.904;2024-01-30T11:08:39;6.40;99.90
8715;DHT22;4394;51.208;8.904;2024-01-30T11:11:27;6.40;99.90
8715;DHT22;4394;51.208;8.904;2024-01-30T11:14:15;6.50;99.90
8715;DHT22;4394;51.208;8.904;2024-01-30T11:17:03;6.50;99.90
8715;DHT22;4394;51.208;8.904;2024-01-30T11:19:52;6.60;99.90
8715;DHT22;4394;51.208;8.904;2024-01-30T11:22:45;6.70;99.90
8715;DHT22;4394;51.208;8.904;2024-01-30T11:25:34;6.80;99.90
8715;DHT22;4394;51.208;8.904;2024-01-30T11:28:24;6.80;99.90
8715;DHT22;4394;51.208;8.904;2024-01-30T11:31:18;6.90;99.90
8715;DHT22;4394;51.208;8.904;2024-01-30T11:34:07;7.00;99.90
8715;DHT22;4394;51.208;8.904;2024-01-30T11:36:57;7.00;99.90
8715;DHT22;4394;51.208;8.904;2024-01-30T11:39:48;7.00;99.90
8715;DHT22;4394;51.208;8.904;2024-01-30T11:42:36;7.00;99.90
8715;DHT22;4394;51.208;8.904;2024-01-30T11:45:26;7.10;99.90
8715;DHT22;4394;51.208;8.904;2024-01-30T11:48:15;7.20;99.90
8715;DHT22;4394;51.208;8.904;2024-01-30T11:51:03;7.20;99.90
8715;DHT22;4394;51.208;8.904;2024-01-30T11:53:51;7.20;99.90
8715;DHT22;4394;51.208;8.904;2024-01-30T11:56:41;7.20;99.90
8715;DHT22;4394;51.208;8.904;2024-01-30T11:59:29;7.20;99.90
8715;DHT22;4394;51.208;8.904;2024-01-30T12:02:18;7.30;99.90
8715;DHT22;4394;51.208;8.904;2024-01-30T12:05:06;7.30;99.90
8715;DHT22;4394;51.208;8.904;2024-01-30T12:07:55;7.40;99.90
8715;DHT22;4394;51.208;8.904;2024-01-30T12:10:46;7.50;99.90
8715;DHT22;4394;51.208;8.904;2024-01-30T12:13:35;7.50;99.90
8715;DHT22;4394;51.208;8.904;2024-01-30T12:16:24;7.50;99.90
8715;DHT22;4394;51.208;8.904;2024-01-30T12:19:21;7.50;99.90
8715;DHT22;4394;51.208;8.904;2024-01-30T12:22:10;7.50;99.90
8715;DHT22;4394;51.208;8.904;2024-01-30T12:24:59;7.50;99.90
8715;DHT22;4394;51.208;8.904;2024-01-30T12:27:49;7.50;99.90
8715;DHT22;4394;51.208;8.904;2024-01-30T12:30:40;7.60;99.90
8715;DHT22;4394;51.208;8.904;2024-01-30T12:33:28;7.60;99.90
8715;DHT22;4394;51.208;8.904;2024-01-30T12:36:17;7.60;99.90
8715;DHT22;4394;51.208;8.904;2024-01-30T12:39:05;7.70;99.90
8715;DHT22;4394;51.208;8.904;2024-01-30T12:41:53;7.70;99.90
8715;DHT22;4394;51.208;8.904;2024-01-30T12:44:41;7.80;99.90
8715;DHT22;4394;51.208;8.904;2024-01-30T12:47:31;7.80;99.90
8715;DHT22;4394;51.208;8.904;2024-01-30T12:50:20;7.90;99.90
8715;DHT22;4394;51.208;8.904;2024-01-30T12:53:08;8.00;99.90
8715;DHT22;4394;51.208;8.904;2024-01-30T12:55:56;8.00;99.90
8715;DHT22;4394;51.208;8.904;2024-01-30T12:58:44;8.10;99.90
8715;DHT22;4394;51.208;8.904;2024-01-30T13:01:37;8.10;99.90
8715;DHT22;4394;51.208;8.904;2024-01-30T13:04:27;8.10;99.90
8715;DHT22;4394;51.208;8.904;2024-01-30T13:07:15;8.10;99.90
8715;DHT22;4394;51.208;8.904;2024-01-30T13:10:04;8.10;99.90
8715;DHT22;4394;51.208;8.904;2024-01-30T13:12:52;8.10;99.90
8715;DHT22;4394;51.208;8.904;2024-01-30T13:15:41;8.10;99.90
8715;DHT22;4394;51.208;8.904;2024-01-30T13:18:29;8.10;99.90
8715;DHT22;4394;51.208;8.904;2024-01-30T13:21:19;8.10;99.90
8715;DHT22;4394;51.208;8.904;2024-01-30T13:24:07;8.10;99.90
8715;DHT22;4394;51.208;8.904;2024-01-30T13:26:55;8.10;99.90
8715;DHT22;4394;51.208;8.904;2024-01-30T13:29:43;8.10;99.90
8715;DHT22;4394;51.208;8.904;2024-01-30T13:32:31;8.10;99.90
8715;DHT22;4394;51.208;8.904;2024-01-30T13:35:20;8.00;99.90
8715;DHT22;4394;51.208;8.904;2024-01-30T13:38:09;8.10;99.90
8715;DHT22;4394;51.208;8.904;2024-01-30T13:40:57;8.10;99.90
8715;DHT22;4394;51.208;8.904;2024-01-30T13:43:46;8.10;99.90
8715;DHT22;4394;51.208;8.904;2024-01-30T13:46:34;8.10;99.90
8715;DHT22;4394;51.208;8.904;2024-01-30T13:49:23;8.10;99.90
8715;DHT22;4394;51.208;8.904;2024-01-30T13:52:12;8.10;99.90
8715;DHT22;4394;51.208;8.904;2024-01-30T13:55:03;8.00;99.90
8715;DHT22;4394;51.208;8.904;2024-01-30T13:57:52;8.10;99.90
8715;DHT22;4394;51.208;8.904;2024-01-30T14:00:40;8.00;99.90
8715;DHT22;4394;51.208;8.904;2024-01-30T14:03:28;8.00;99.90
8715;DHT22;4394;51.208;8.904;2024-01-30T14:06:16;8.00;99.90
8715;DHT22;4394;51.208;8.904;2024-01-30T14:09:05;8.00;99.90
8715;DHT22;4394;51.208;8.904;2024-01-30T14:11:56;8.00;99.90
8715;DHT22;4394;51.208;8.904;2024-01-30T14:14:44;8.00;99.90
8715;DHT22;4394;51.208;8.904;2024-01-30T14:17:32;8.00;99.90
8715;DHT22;4394;51.208;8.904;2024-01-30T14:20:20;8.00;99.90
8715;DHT22;4394;51.208;8.904;2024-01-30T14:23:08;8.00;99.90
8715;DHT22;4394;51.208;8.904;2024-01-30T14:25:56;7.90;99.90
8715;DHT22;4394;51.208;8.904;2024-01-30T14:28:51;7.90;99.90
8715;DHT22;4394;51.208;8.904;2024-01-30T14:31:39;7.90;99.90
8715;DHT22;4394;51.208;8.904;2024-01-30T14:34:27;7.90;99.90
8715;DHT22;4394;51.208;8.904;2024-01-30T14:37:15;7.90;99.90
8715;DHT22;4394;51.208;8.904;2024-01-30T14:40:06;7.90;99.90
8715;DHT22;4394;51.208;8.904;2024-01-30T14:42:55;7.90;99.90
8715;DHT22;4394;51.208;8.904;2024-01-30T14:45:44;7.90;99.90
8715;DHT22;4394;51.208;8.904;2024-01-30T14:48:35;7.90;99.90
8715;DHT22;4394;51.208;8.904;2024-01-30T14:51:24;7.90;99.90
8715;DHT22;4394;51.208;8.904;2024-01-30T14:54:12;7.90;99.90
8715;DHT22;4394;51.208;8.904;2024-01-30T14:57:00;7.90;99.90
8715;DHT22;4394;51.208;8.904;2024-01-30T14:59:48;7.90;99.90
8715;DHT22;4394;51.208;8.904;2024-01-30T15:02:38;7.80;99.90
8715;DHT22;4394;51.208;8.904;2024-01-30T15:05:26;7.80;99.90
8715;DHT22;4394;51.208;8.904;2024-01-30T15:08:14;7.90;99.90
8715;DHT22;4394;51.208;8.904;2024-01-30T15:11:02;7.80;99.90
8715;DHT22;4394;51.208;8.904;2024-01-30T15:13:51;7.80;99.90
8715;DHT22;4394;51.208;8.904;2024-01-30T15:16:39;7.80;99.90
8715;DHT22;4394;51.208;8.904;2024-01-30T15:19:28;7.80;99.90
8715;DHT22;4394;51.208;8.904;2024-01-30T15:22:17;7.90;99.90
8715;DHT22;4394;51.208;8.904;2024-01-30T15:25:06;7.80;99.90
8715;DHT22;4394;51.208;8.904;2024-01-30T15:27:54;7.80;99.90
8715;DHT22;4394;51.208;8.904;2024-01-30T15:30:42;7.80;99.90
8715;DHT22;4394;51.208;8.904;2024-01-30T15:33:31;7.80;99.90
8715;DHT22;4394;51.208;8.904;2024-01-30T15:36:21;7.80;99.90
8715;DHT22;4394;51.208;8.904;2024-01-30T15:39:09;7.80;99.90
8715;DHT22;4394;51.208;8.904;2024-01-30T15:41:58;7.70;99.90
8715;DHT22;4394;51.208;8.904;2024-01-30T15:44:46;7.70;99.90
8715;DHT22;4394;51.208;8.904;2024-01-30T15:47:34;7.70;99.90
8715;DHT22;4394;51.208;8.904;2024-01-30T15:50:23;7.70;99.90
8715;DHT22;4394;51.208;8.904;2024-01-30T15:53:13;7.70;99.90
8715;DHT22;4394;51.208;8.904;2024-01-30T15:56:01;7.70;99.90
8715;DHT22;4394;51.208;8.904;2024-01-30T15:58:50;7.70;99.90
8715;DHT22;4394;51.208;8.904;2024-01-30T16:01:39;7.70;99.90
8715;DHT22;4394;51.208;8.904;2024-01-30T16:04:27;7.70;99.90
8715;DHT22;4394;51.208;8.904;2024-01-30T16:07:15;7.70;99.90
8715;DHT22;4394;51.208;8.904;2024-01-30T16:10:06;7.70;99.90
8715;DHT22;4394;51.208;8.904;2024-01-30T16:12:55;7.70;99.90
8715;DHT22;4394;51.208;8.904;2024-01-30T16:15:43;7.60;99.90
8715;DHT22;4394;51.208;8.904;2024-01-30T16:18:31;7.60;99.90
8715;DHT22;4394;51.208;8.904;2024-01-30T16:21:20;7.60;99.90
8715;DHT22;4394;51.208;8.904;2024-01-30T16:24:08;7.60;99.90
8715;DHT22;4394;51.208;8.904;2024-01-30T16:26:57;7.60;99.90
8715;DHT22;4394;51.208;8.904;2024-01-30T16:29:45;7.50;99.90
8715;DHT22;4394;51.208;8.904;2024-01-30T16:32:33;7.60;99.90
8715;DHT22;4394;51.208;8.904;2024-01-30T16:35:21;7.50;99.90
8715;DHT22;4394;51.208;8.904;2024-01-30T16:38:30;7.50;99.90
8715;DHT22;4394;51.208;8.904;2024-01-30T16:41:18;7.50;99.90
8715;DHT22;4394;51.208;8.904;2024-01-30T16:44:07;7.60;99.90
8715;DHT22;4394;51.208;8.904;2024-01-30T16:46:55;7.60;99.90
8715;DHT22;4394;51.208;8.904;2024-01-30T16:49:43;7.50;99.90
8715;DHT22;4394;51.208;8.904;2024-01-30T16:52:31;7.60;99.90
8715;DHT22;4394;51.208;8.904;2024-01-30T16:55:19;7.60;99.90
8715;DHT22;4394;51.208;8.904;2024-01-30T16:58:09;7.60;99.90
8715;DHT22;4394;51.208;8.904;2024-01-30T17:01:00;7.60;99.90
8715;DHT22;4394;51.208;8.904;2024-01-30T17:03:48;7.60;99.90
8715;DHT22;4394;51.208;8.904;2024-01-30T17:06:36;7.70;99.90
8715;DHT22;4394;51.208;8.904;2024-01-30T17:09:24;7.70;99.90
8715;DHT22;4394;51.208;8.904;2024-01-30T17:12:12;7.60;99.90
8715;DHT22;4394;51.208;8.904;2024-01-30T17:15:00;7.60;99.90
8715;DHT22;4394;51.208;8.904;2024-01-30T17:17:49;7.60;99.90
8715;DHT22;4394;51.208;8.904;2024-01-30T17:20:40;7.60;99.90
8715;DHT22;4394;51.208;8.904;2024-01-30T17:23:28;7.60;99.90
8715;DHT22;4394;51.208;8.904;2024-01-30T17:26:16;7.70;99.90
8715;DHT22;4394;51.208;8.904;2024-01-30T17:29:04;7.60;99.90
8715;DHT22;4394;51.208;8.904;2024-01-30T17:31:52;7.60;99.90
8715;DHT22;4394;51.208;8.904;2024-01-30T17:34:43;7.60;99.90
8715;DHT22;4394;51.208;8.904;2024-01-30T17:37:31;7.60;99.90
8715;DHT22;4394;51.208;8.904;2024-01-30T17:40:21;7.60;99.90
8715;DHT22;4394;51.208;8.904;2024-01-30T17:43:09;7.60;99.90
8715;DHT22;4394;51.208;8.904;2024-01-30T17:45:57;7.50;99.90
8715;DHT22;4394;51.208;8.904;2024-01-30T17:48:46;7.60;99.90
8715;DHT22;4394;51.208;8.904;2024-01-30T17:51:39;7.60;99.90
8715;DHT22;4394;51.208;8.904;2024-01-30T17:54:28;7.50;99.90
8715;DHT22;4394;51.208;8.904;2024-01-30T17:57:16;7.30;99.90
8715;DHT22;4394;51.208;8.904;2024-01-30T18:00:06;7.40;99.90
8715;DHT22;4394;51.208;8.904;2024-01-30T18:02:54;7.50;99.90
8715;DHT22;4394;51.208;8.904;2024-01-30T18:05:43;7.50;99.90
8715;DHT22;4394;51.208;8.904;2024-01-30T18:08:34;7.50;99.90
8715;DHT22;4394;51.208;8.904;2024-01-30T18:11:22;7.50;99.90
8715;DHT22;4394;51.208;8.904;2024-01-30T18:14:11;7.50;99.90
8715;DHT22;4394;51.208;8.904;2024-01-30T18:16:59;7.50;99.90
8715;DHT22;4394;51.208;8.904;2024-01-30T18:19:47;7.50;99.90
8715;DHT22;4394;51.208;8.904;2024-01-30T18:22:35;7.60;99.90
8715;DHT22;4394;51.208;8.904;2024-01-30T18:25:28;7.50;99.90
8715;DHT22;4394;51.208;8.904;2024-01-30T18:28:16;7.50;99.90
8715;DHT22;4394;51.208;8.904;2024-01-30T18:31:05;7.60;99.90
8715;DHT22;4394;51.208;8.904;2024-01-30T18:33:53;7.60;99.90
8715;DHT22;4394;51.208;8.904;2024-01-30T18:36:42;7.60;99.90
8715;DHT22;4394;51.208;8.904;2024-01-30T18:39:30;7.60;99.90